sensor_id;sensor_type;location;lat;lon;timestamp;pressure;altitude;pressure_sealevel;temperature;humidity
32642;BME280;19323;56.072;9.698;2023-02-16T00:01:13;101118.06;;;25.29;35.24
32642;BME280;19323;56.072;9.698;2023-02-16T00:03:39;101143.09;;;25.48;35.37
32642;BME280;19323;56.072;9.698;2023-02-16T00:06:04;101140.41;;;25.48;35.29
32642;BME280;19323;56.072;9.698;2023-02-16T00:08:29;101138.56;;;25.48;35.38
32642;BME280;19323;56.072;9.698;2023-02-16T00:10:55;101125.50;;;25.36;35.37
32642;BME280;19323;56.072;9.698;2023-02-16T00:13:39;101137.72;;;25.48;35.47
32642;BME280;19323;56.072;9.698;2023-02-16T00:16:15;101147.44;;;25.49;35.34
32642;BME280;19323;56.072;9.698;2023-02-16T00:18:41;101149.31;;;25.48;35.22
32642;BME280;19323;56.072;9.698;2023-02-16T00:21:06;101146.63;;;25.48;35.15
32642;BME280;19323;56.072;9.698;2023-02-16T00:23:31;101145.78;;;25.48;35.29
32642;BME280;19323;56.072;9.698;2023-02-16T00:25:56;101138.72;;;25.47;35.31
32642;BME280;19323;56.072;9.698;2023-02-16T00:28:22;101129.69;;;25.48;35.29
32642;BME280;19323;56.072;9.698;2023-02-16T00:30:47;101132.22;;;25.49;35.37
32642;BME280;19323;56.072;9.698;2023-02-16T00:33:14;101125.84;;;25.51;35.19
32642;BME280;19323;56.072;9.698;2023-02-16T00:35:39;101123.03;;;25.52;35.49
32642;BME280;19323;56.072;9.698;2023-02-16T00:38:05;101126.69;;;25.51;35.26
32642;BME280;19323;56.072;9.698;2023-02-16T00:40:30;101129.38;;;25.51;35.09
32642;BME280;19323;56.072;9.698;2023-02-16T00:42:55;101136.44;;;25.52;35.17
32642;BME280;19323;56.072;9.698;2023-02-16T00:45:21;101130.22;;;25.52;35.20
32642;BME280;19323;56.072;9.698;2023-02-16T00:47:47;101131.09;;;25.52;35.51
32642;BME280;19323;56.072;9.698;2023-02-16T00:50:26;101115.97;;;25.51;35.20
32642;BME280;19323;56.072;9.698;2023-02-16T00:52:52;101122.16;;;25.52;35.06
32642;BME280;19323;56.072;9.698;2023-02-16T00:55:18;101123.03;;;25.52;35.29
32642;BME280;19323;56.072;9.698;2023-02-16T00:57:45;101121.34;;;25.51;35.23
32642;BME280;19323;56.072;9.698;2023-02-16T01:00:13;101116.97;;;25.50;35.17
32642;BME280;19323;56.072;9.698;2023-02-16T01:02:40;101115.97;;;25.51;35.18
32642;BME280;19323;56.072;9.698;2023-02-16T01:05:05;101122.34;;;25.50;35.08
32642;BME280;19323;56.072;9.698;2023-02-16T01:07:31;101113.28;;;25.51;35.07
32642;BME280;19323;56.072;9.698;2023-02-16T01:10:16;101107.09;;;25.51;35.27
32642;BME280;19323;56.072;9.698;2023-02-16T01:13:00;101111.63;;;25.50;35.26
32642;BME280;19323;56.072;9.698;2023-02-16T01:15:25;101097.19;;;25.51;35.28
32642;BME280;19323;56.072;9.698;2023-02-16T01:17:50;101097.38;;;25.49;35.22
32642;BME280;19323;56.072;9.698;2023-02-16T01:20:16;101089.16;;;25.51;34.98
32642;BME280;19323;56.072;9.698;2023-02-16T01:22:42;101096.34;;;25.51;35.07
32642;BME280;19323;56.072;9.698;2023-02-16T01:25:07;101082.13;;;25.50;34.98
32642;BME280;19323;56.072;9.698;2023-02-16T01:27:33;101080.41;;;25.49;35.10
32642;BME280;19323;56.072;9.698;2023-02-16T01:30:00;101078.72;;;25.48;35.24
32642;BME280;19323;56.072;9.698;2023-02-16T01:32:25;101076.75;;;25.50;35.12
32642;BME280;19323;56.072;9.698;2023-02-16T01:34:50;101074.34;;;25.47;35.14
32642;BME280;19323;56.072;9.698;2023-02-16T01:37:15;101067.16;;;25.47;35.23
32642;BME280;19323;56.072;9.698;2023-02-16T01:39:41;101059.13;;;25.47;35.13
32642;BME280;19323;56.072;9.698;2023-02-16T01:42:10;101061.81;;;25.47;35.16
32642;BME280;19323;56.072;9.698;2023-02-16T01:44:40;101059.13;;;25.47;35.25
32642;BME280;19323;56.072;9.698;2023-02-16T01:47:29;101062.66;;;25.48;34.99
32642;BME280;19323;56.072;9.698;2023-02-16T01:49:56;101070.53;;;25.49;35.16
32642;BME280;19323;56.072;9.698;2023-02-16T01:55:01;101062.66;;;25.48;35.08
32642;BME280;19323;56.072;9.698;2023-02-16T01:57:32;101059.25;;;25.46;35.15
32642;BME280;19323;56.072;9.698;2023-02-16T02:00:05;101055.56;;;25.47;35.32
32642;BME280;19323;56.072;9.698;2023-02-16T02:02:34;101058.25;;;25.47;35.00
32642;BME280;19323;56.072;9.698;2023-02-16T02:07:55;101050.22;;;25.47;34.99
32642;BME280;19323;56.072;9.698;2023-02-16T02:10:38;101061.94;;;25.46;35.20
32642;BME280;19323;56.072;9.698;2023-02-16T02:13:19;101055.75;;;25.45;35.18
32642;BME280;19323;56.072;9.698;2023-02-16T02:15:45;101047.84;;;25.44;35.10
32642;BME280;19323;56.072;9.698;2023-02-16T02:18:10;101041.47;;;25.45;34.96
32642;BME280;19323;56.072;9.698;2023-02-16T02:20:56;101038.78;;;25.45;34.92
32642;BME280;19323;56.072;9.698;2023-02-16T02:23:59;101036.97;;;25.45;35.25
32642;BME280;19323;56.072;9.698;2023-02-16T02:29:18;101021.88;;;25.44;34.92
32642;BME280;19323;56.072;9.698;2023-02-16T02:32:09;101015.66;;;25.44;35.10
32642;BME280;19323;56.072;9.698;2023-02-16T02:39:37;100987.16;;;25.43;35.25
32642;BME280;19323;56.072;9.698;2023-02-16T02:42:15;100992.50;;;25.43;35.13
32642;BME280;19323;56.072;9.698;2023-02-16T02:44:47;100985.34;;;25.43;35.13
32642;BME280;19323;56.072;9.698;2023-02-16T02:47:13;100993.38;;;25.43;35.05
32642;BME280;19323;56.072;9.698;2023-02-16T02:49:38;100992.50;;;25.43;35.09
32642;BME280;19323;56.072;9.698;2023-02-16T02:52:03;100998.88;;;25.42;34.95
32642;BME280;19323;56.072;9.698;2023-02-16T02:54:30;101001.41;;;25.43;35.14
32642;BME280;19323;56.072;9.698;2023-02-16T02:57:18;100999.56;;;25.44;35.16
32642;BME280;19323;56.072;9.698;2023-02-16T03:00:05;101003.09;;;25.44;34.91
32642;BME280;19323;56.072;9.698;2023-02-16T03:02:52;101003.22;;;25.43;35.02
32642;BME280;19323;56.072;9.698;2023-02-16T03:05:18;100990.84;;;25.42;35.16
32642;BME280;19323;56.072;9.698;2023-02-16T03:07:45;100986.16;;;25.44;35.30
32642;BME280;19323;56.072;9.698;2023-02-16T03:10:14;100986.31;;;25.42;34.93
32642;BME280;19323;56.072;9.698;2023-02-16T03:12:59;100986.31;;;25.42;34.93
32642;BME280;19323;56.072;9.698;2023-02-16T03:15:25;100992.50;;;25.43;35.08
32642;BME280;19323;56.072;9.698;2023-02-16T03:17:52;100993.38;;;25.43;34.96
32642;BME280;19323;56.072;9.698;2023-02-16T03:20:37;100981.78;;;25.43;35.08
32642;BME280;19323;56.072;9.698;2023-02-16T03:23:22;100985.47;;;25.42;35.08
32642;BME280;19323;56.072;9.698;2023-02-16T03:26:06;100980.09;;;25.42;35.07
32642;BME280;19323;56.072;9.698;2023-02-16T03:28:50;100963.94;;;25.34;34.94
32642;BME280;19323;56.072;9.698;2023-02-16T03:31:35;100977.44;;;25.42;35.02
32642;BME280;19323;56.072;9.698;2023-02-16T03:34:02;100972.91;;;25.42;35.17
32642;BME280;19323;56.072;9.698;2023-02-16T03:36:28;100964.03;;;25.42;35.02
32642;BME280;19323;56.072;9.698;2023-02-16T03:38:55;100954.13;;;25.42;35.23
32642;BME280;19323;56.072;9.698;2023-02-16T03:41:21;100964.84;;;25.42;35.01
32642;BME280;19323;56.072;9.698;2023-02-16T03:43:46;100976.41;;;25.43;35.04
32642;BME280;19323;56.072;9.698;2023-02-16T03:46:12;100978.25;;;25.42;34.96
32642;BME280;19323;56.072;9.698;2023-02-16T03:48:37;100943.72;;;25.21;35.04
32642;BME280;19323;56.072;9.698;2023-02-16T03:51:02;100970.22;;;25.42;35.18
32642;BME280;19323;56.072;9.698;2023-02-16T03:53:27;100967.53;;;25.42;35.03
32642;BME280;19323;56.072;9.698;2023-02-16T03:55:52;100977.44;;;25.42;34.98
32642;BME280;19323;56.072;9.698;2023-02-16T03:58:19;100981.78;;;25.43;35.23
32642;BME280;19323;56.072;9.698;2023-02-16T04:00:44;100974.75;;;25.42;35.30
32642;BME280;19323;56.072;9.698;2023-02-16T04:03:10;100974.75;;;25.42;35.14
32642;BME280;19323;56.072;9.698;2023-02-16T04:05:36;100980.09;;;25.42;35.14
32642;BME280;19323;56.072;9.698;2023-02-16T04:08:01;100979.28;;;25.41;35.17
32642;BME280;19323;56.072;9.698;2023-02-16T04:10:27;100991.66;;;25.42;35.18
32642;BME280;19323;56.072;9.698;2023-02-16T04:12:52;100986.31;;;25.42;35.12
32642;BME280;19323;56.072;9.698;2023-02-16T04:15:18;100989.81;;;25.43;35.10
32642;BME280;19323;56.072;9.698;2023-02-16T04:17:44;100981.78;;;25.43;35.30
32642;BME280;19323;56.072;9.698;2023-02-16T04:20:10;100982.78;;;25.42;35.27
32642;BME280;19323;56.072;9.698;2023-02-16T04:22:36;100984.63;;;25.41;35.11
32642;BME280;19323;56.072;9.698;2023-02-16T04:25:01;100988.16;;;25.42;35.24
32642;BME280;19323;56.072;9.698;2023-02-16T04:27:26;100991.53;;;25.44;35.24
32642;BME280;19323;56.072;9.698;2023-02-16T04:29:51;100981.78;;;25.43;35.27
32642;BME280;19323;56.072;9.698;2023-02-16T04:32:16;100984.47;;;25.43;35.35
32642;BME280;19323;56.072;9.698;2023-02-16T04:34:42;100979.09;;;25.43;35.11
32642;BME280;19323;56.072;9.698;2023-02-16T04:37:07;100973.75;;;25.43;35.17
32642;BME280;19323;56.072;9.698;2023-02-16T04:39:32;100974.59;;;25.43;35.34
32642;BME280;19323;56.072;9.698;2023-02-16T04:41:57;100963.88;;;25.43;35.15
32642;BME280;19323;56.072;9.698;2023-02-16T04:44:22;100966.56;;;25.43;35.22
32642;BME280;19323;56.072;9.698;2023-02-16T04:46:48;100967.41;;;25.44;35.06
32642;BME280;19323;56.072;9.698;2023-02-16T04:49:13;100968.22;;;25.44;35.15
32642;BME280;19323;56.072;9.698;2023-02-16T04:51:38;100960.34;;;25.43;35.17
32642;BME280;19323;56.072;9.698;2023-02-16T04:54:06;100956.66;;;25.44;35.29
32642;BME280;19323;56.072;9.698;2023-02-16T04:56:31;100970.06;;;25.44;35.17
32642;BME280;19323;56.072;9.698;2023-02-16T04:58:57;100961.34;;;25.42;35.22
32642;BME280;19323;56.072;9.698;2023-02-16T05:01:22;100961.34;;;25.42;35.08
32642;BME280;19323;56.072;9.698;2023-02-16T05:03:48;100961.34;;;25.42;35.38
32642;BME280;19323;56.072;9.698;2023-02-16T05:06:14;100959.50;;;25.42;35.30
32642;BME280;19323;56.072;9.698;2023-02-16T05:08:39;100954.97;;;25.43;35.21
32642;BME280;19323;56.072;9.698;2023-02-16T05:11:04;100953.28;;;25.42;35.14
32642;BME280;19323;56.072;9.698;2023-02-16T05:13:48;100962.19;;;25.42;35.40
32642;BME280;19323;56.072;9.698;2023-02-16T05:16:32;100958.66;;;25.42;35.26
32642;BME280;19323;56.072;9.698;2023-02-16T05:18:57;100963.00;;;25.43;35.18
32642;BME280;19323;56.072;9.698;2023-02-16T05:21:22;100963.88;;;25.43;35.21
32642;BME280;19323;56.072;9.698;2023-02-16T05:23:57;100970.22;;;25.42;35.28
32642;BME280;19323;56.072;9.698;2023-02-16T05:26:22;100964.03;;;25.42;35.44
32642;BME280;19323;56.072;9.698;2023-02-16T05:28:47;100966.72;;;25.42;35.10
32642;BME280;19323;56.072;9.698;2023-02-16T05:31:13;100967.53;;;25.42;35.36
32642;BME280;19323;56.072;9.698;2023-02-16T05:33:38;100964.03;;;25.42;35.25
32642;BME280;19323;56.072;9.698;2023-02-16T05:36:03;100968.38;;;25.43;35.34
32642;BME280;19323;56.072;9.698;2023-02-16T05:38:28;100971.91;;;25.43;35.23
32642;BME280;19323;56.072;9.698;2023-02-16T05:40:53;100968.56;;;25.41;35.17
32642;BME280;19323;56.072;9.698;2023-02-16T05:43:18;100964.84;;;25.42;35.28
32642;BME280;19323;56.072;9.698;2023-02-16T05:45:44;100964.03;;;25.42;35.43
32642;BME280;19323;56.072;9.698;2023-02-16T05:48:09;100968.56;;;25.41;35.16
32642;BME280;19323;56.072;9.698;2023-02-16T05:50:34;100960.50;;;25.41;35.26
32642;BME280;19323;56.072;9.698;2023-02-16T05:52:59;100960.50;;;25.41;35.50
32642;BME280;19323;56.072;9.698;2023-02-16T05:55:24;100962.34;;;25.41;35.17
32642;BME280;19323;56.072;9.698;2023-02-16T05:57:50;100973.91;;;25.41;35.56
32642;BME280;19323;56.072;9.698;2023-02-16T06:00:15;100976.59;;;25.41;35.42
32642;BME280;19323;56.072;9.698;2023-02-16T06:02:40;100980.09;;;25.42;35.49
32642;BME280;19323;56.072;9.698;2023-02-16T06:05:06;100969.38;;;25.42;35.50
32642;BME280;19323;56.072;9.698;2023-02-16T06:07:31;100967.53;;;25.42;35.30
32642;BME280;19323;56.072;9.698;2023-02-16T06:09:56;100972.06;;;25.42;35.47
32642;BME280;19323;56.072;9.698;2023-02-16T06:12:21;100982.78;;;25.42;35.31
32642;BME280;19323;56.072;9.698;2023-02-16T06:14:46;100982.94;;;25.40;35.50
32642;BME280;19323;56.072;9.698;2023-02-16T06:17:12;100986.47;;;25.41;35.39
32642;BME280;19323;56.072;9.698;2023-02-16T06:19:37;100985.47;;;25.42;35.63
32642;BME280;19323;56.072;9.698;2023-02-16T06:22:02;100983.63;;;25.42;35.39
32642;BME280;19323;56.072;9.698;2023-02-16T06:24:27;100990.84;;;25.42;35.55
32642;BME280;19323;56.072;9.698;2023-02-16T06:26:52;100994.34;;;25.42;35.28
32642;BME280;19323;56.072;9.698;2023-02-16T06:29:17;100997.03;;;25.42;35.46
32642;BME280;19323;56.072;9.698;2023-02-16T06:31:43;100991.66;;;25.42;35.32
32642;BME280;19323;56.072;9.698;2023-02-16T06:34:08;100993.53;;;25.42;35.41
32642;BME280;19323;56.072;9.698;2023-02-16T06:36:33;100981.78;;;25.43;35.32
32642;BME280;19323;56.072;9.698;2023-02-16T06:38:58;100980.09;;;25.42;35.54
32642;BME280;19323;56.072;9.698;2023-02-16T06:41:24;100984.63;;;25.41;35.53
32642;BME280;19323;56.072;9.698;2023-02-16T06:43:58;100990.84;;;25.42;35.52
32642;BME280;19323;56.072;9.698;2023-02-16T06:46:23;101004.09;;;25.43;35.51
32642;BME280;19323;56.072;9.698;2023-02-16T06:48:49;101000.72;;;25.41;35.60
32642;BME280;19323;56.072;9.698;2023-02-16T06:51:16;101002.41;;;25.42;35.56
32642;BME280;19323;56.072;9.698;2023-02-16T06:53:41;101000.56;;;25.43;35.62
32642;BME280;19323;56.072;9.698;2023-02-16T06:56:06;101003.22;;;25.43;35.52
32642;BME280;19323;56.072;9.698;2023-02-16T06:58:31;101000.56;;;25.43;35.41
32642;BME280;19323;56.072;9.698;2023-02-16T07:00:57;101002.25;;;25.44;35.47
32642;BME280;19323;56.072;9.698;2023-02-16T07:03:22;101003.94;;;25.45;35.48
32642;BME280;19323;56.072;9.698;2023-02-16T07:05:48;101001.25;;;25.45;35.65
32642;BME280;19323;56.072;9.698;2023-02-16T07:08:13;100996.75;;;25.45;35.37
32642;BME280;19323;56.072;9.698;2023-02-16T07:10:41;101003.94;;;25.45;35.46
32642;BME280;19323;56.072;9.698;2023-02-16T07:13:06;101004.63;;;25.47;35.39
32642;BME280;19323;56.072;9.698;2023-02-16T07:15:31;101015.91;;;25.51;35.53
32642;BME280;19323;56.072;9.698;2023-02-16T07:17:57;101010.69;;;25.49;35.66
32642;BME280;19323;56.072;9.698;2023-02-16T07:20:22;101017.88;;;25.48;35.81
32642;BME280;19323;56.072;9.698;2023-02-16T07:22:47;101019.72;;;25.48;35.68
32642;BME280;19323;56.072;9.698;2023-02-16T07:25:12;101001.88;;;25.39;35.88
32642;BME280;19323;56.072;9.698;2023-02-16T07:27:37;101027.78;;;25.48;35.98
32642;BME280;19323;56.072;9.698;2023-02-16T07:30:03;101020.56;;;25.48;35.89
32642;BME280;19323;56.072;9.698;2023-02-16T07:32:28;101023.25;;;25.48;36.12
32642;BME280;19323;56.072;9.698;2023-02-16T07:34:54;101026.63;;;25.51;35.88
32642;BME280;19323;56.072;9.698;2023-02-16T07:37:19;101032.00;;;25.51;35.98
32642;BME280;19323;56.072;9.698;2023-02-16T07:39:44;101028.47;;;25.50;35.82
32642;BME280;19323;56.072;9.698;2023-02-16T07:42:09;101028.63;;;25.48;35.96
32642;BME280;19323;56.072;9.698;2023-02-16T07:44:34;101033.00;;;25.49;36.04
32642;BME280;19323;56.072;9.698;2023-02-16T07:46:59;101036.53;;;25.50;35.90
32642;BME280;19323;56.072;9.698;2023-02-16T07:49:24;101030.47;;;25.48;36.02
32642;BME280;19323;56.072;9.698;2023-02-16T07:51:50;101022.41;;;25.48;36.09
32642;BME280;19323;56.072;9.698;2023-02-16T07:54:15;101022.41;;;25.48;36.06
32642;BME280;19323;56.072;9.698;2023-02-16T07:56:40;101028.47;;;25.50;35.80
32642;BME280;19323;56.072;9.698;2023-02-16T07:59:05;101020.56;;;25.48;36.22
32642;BME280;19323;56.072;9.698;2023-02-16T08:01:30;101025.94;;;25.48;36.11
32642;BME280;19323;56.072;9.698;2023-02-16T08:03:56;101020.72;;;25.47;35.95
32642;BME280;19323;56.072;9.698;2023-02-16T08:06:21;101013.69;;;25.46;36.03
32642;BME280;19323;56.072;9.698;2023-02-16T08:08:46;101014.38;;;25.48;35.96
32642;BME280;19323;56.072;9.698;2023-02-16T08:13:37;101016.91;;;25.49;36.05
32642;BME280;19323;56.072;9.698;2023-02-16T08:16:04;101012.84;;;25.45;36.22
32642;BME280;19323;56.072;9.698;2023-02-16T08:18:31;101010.31;;;25.44;36.10
32642;BME280;19323;56.072;9.698;2023-02-16T08:20:56;101004.25;;;25.42;36.25
32642;BME280;19323;56.072;9.698;2023-02-16T08:23:21;101005.25;;;25.41;36.39
32642;BME280;19323;56.072;9.698;2023-02-16T08:25:46;101009.06;;;25.38;36.58
32642;BME280;19323;56.072;9.698;2023-02-16T08:28:11;101008.38;;;25.36;36.43
32642;BME280;19323;56.072;9.698;2023-02-16T08:30:38;101013.03;;;25.34;36.74
32642;BME280;19323;56.072;9.698;2023-02-16T08:33:03;101015.56;;;25.36;36.71
32642;BME280;19323;56.072;9.698;2023-02-16T08:35:29;101008.53;;;25.35;37.05
32642;BME280;19323;56.072;9.698;2023-02-16T08:37:56;101004.16;;;25.34;36.95
32642;BME280;19323;56.072;9.698;2023-02-16T08:40:21;101010.34;;;25.34;37.26
32642;BME280;19323;56.072;9.698;2023-02-16T08:42:48;101003.47;;;25.32;37.41
32642;BME280;19323;56.072;9.698;2023-02-16T08:45:13;101007.97;;;25.31;37.48
32642;BME280;19323;56.072;9.698;2023-02-16T08:47:39;101009.00;;;25.30;37.36
32642;BME280;19323;56.072;9.698;2023-02-16T08:50:04;101011.81;;;25.28;37.33
32642;BME280;19323;56.072;9.698;2023-02-16T08:52:29;101015.47;;;25.27;37.44
32642;BME280;19323;56.072;9.698;2023-02-16T08:54:55;101014.63;;;25.27;37.67
32642;BME280;19323;56.072;9.698;2023-02-16T08:57:20;101010.13;;;25.27;37.57
32642;BME280;19323;56.072;9.698;2023-02-16T08:59:45;101009.13;;;25.28;37.45
32642;BME280;19323;56.072;9.698;2023-02-16T09:02:30;101010.81;;;25.29;37.65
32642;BME280;19323;56.072;9.698;2023-02-16T09:04:55;101004.47;;;25.31;37.62
32642;BME280;19323;56.072;9.698;2023-02-16T09:07:20;101001.66;;;25.32;37.26
32642;BME280;19323;56.072;9.698;2023-02-16T09:09:46;101004.00;;;25.35;37.30
32642;BME280;19323;56.072;9.698;2023-02-16T09:12:12;101006.56;;;25.37;37.23
32642;BME280;19323;56.072;9.698;2023-02-16T09:14:37;100998.19;;;25.40;37.21
32642;BME280;19323;56.072;9.698;2023-02-16T09:17:02;101001.56;;;25.42;37.09
32642;BME280;19323;56.072;9.698;2023-02-16T09:19:27;100998.56;;;25.45;37.09
32642;BME280;19323;56.072;9.698;2023-02-16T09:21:52;100993.06;;;25.46;36.75
32642;BME280;19323;56.072;9.698;2023-02-16T09:24:20;100997.28;;;25.49;36.99
32642;BME280;19323;56.072;9.698;2023-02-16T09:26:45;101002.34;;;25.52;36.90
32642;BME280;19323;56.072;9.698;2023-02-16T09:29:11;101001.19;;;25.55;36.77
32642;BME280;19323;56.072;9.698;2023-02-16T09:31:36;100993.16;;;25.55;36.99
32642;BME280;19323;56.072;9.698;2023-02-16T09:34:04;100998.50;;;25.55;36.85
32642;BME280;19323;56.072;9.698;2023-02-16T09:36:30;101001.19;;;25.55;36.89
32642;BME280;19323;56.072;9.698;2023-02-16T09:38:56;101001.34;;;25.53;36.83
32642;BME280;19323;56.072;9.698;2023-02-16T09:41:26;101000.34;;;25.54;36.82
32642;BME280;19323;56.072;9.698;2023-02-16T09:43:55;101007.38;;;25.55;36.83
32642;BME280;19323;56.072;9.698;2023-02-16T09:46:22;101004.72;;;25.55;36.92
32642;BME280;19323;56.072;9.698;2023-02-16T09:48:49;101008.22;;;25.56;37.18
32642;BME280;19323;56.072;9.698;2023-02-16T09:51:24;101007.38;;;25.55;37.21
32642;BME280;19323;56.072;9.698;2023-02-16T09:53:53;101009.38;;;25.53;37.42
32642;BME280;19323;56.072;9.698;2023-02-16T09:56:28;100999.66;;;25.52;37.21
32642;BME280;19323;56.072;9.698;2023-02-16T09:59:03;100999.50;;;25.54;37.26
32642;BME280;19323;56.072;9.698;2023-02-16T10:01:40;101001.06;;;25.56;37.33
32642;BME280;19323;56.072;9.698;2023-02-16T10:04:15;101002.03;;;25.55;37.42
32642;BME280;19323;56.072;9.698;2023-02-16T10:09:25;101011.09;;;25.54;37.38
32642;BME280;19323;56.072;9.698;2023-02-16T10:12:27;101012.06;;;25.53;37.59
32642;BME280;19323;56.072;9.698;2023-02-16T10:14:45;101006.84;;;25.52;37.39
32642;BME280;19323;56.072;9.698;2023-02-16T10:17:27;101005.72;;;25.54;37.64
32642;BME280;19323;56.072;9.698;2023-02-16T10:20:00;101004.72;;;25.55;37.30
32642;BME280;19323;56.072;9.698;2023-02-16T10:22:31;101001.75;;;25.58;37.19
32642;BME280;19323;56.072;9.698;2023-02-16T10:25:01;101001.56;;;25.60;37.02
32642;BME280;19323;56.072;9.698;2023-02-16T10:27:33;100996.38;;;25.58;37.03
32642;BME280;19323;56.072;9.698;2023-02-16T10:30:00;100994.53;;;25.59;37.32
32642;BME280;19323;56.072;9.698;2023-02-16T10:32:29;100988.34;;;25.58;36.97
32642;BME280;19323;56.072;9.698;2023-02-16T10:40:09;101006.09;;;25.59;36.99
32642;BME280;19323;56.072;9.698;2023-02-16T10:42:39;101002.41;;;25.60;36.86
32642;BME280;19323;56.072;9.698;2023-02-16T10:45:28;101007.75;;;25.60;36.83
32642;BME280;19323;56.072;9.698;2023-02-16T10:47:55;101009.63;;;25.60;36.78
32642;BME280;19323;56.072;9.698;2023-02-16T10:52:46;101010.16;;;25.63;36.85
32642;BME280;19323;56.072;9.698;2023-02-16T10:55:12;101013.53;;;25.65;36.83
32642;BME280;19323;56.072;9.698;2023-02-16T10:57:37;101009.84;;;25.66;36.83
32642;BME280;19323;56.072;9.698;2023-02-16T11:00:08;101006.19;;;25.67;36.64
32642;BME280;19323;56.072;9.698;2023-02-16T11:02:40;101008.69;;;25.69;36.60
32642;BME280;19323;56.072;9.698;2023-02-16T11:07:54;101012.22;;;25.69;36.68
32642;BME280;19323;56.072;9.698;2023-02-16T11:10:22;101007.56;;;25.72;36.55
32642;BME280;19323;56.072;9.698;2023-02-16T11:12:57;101006.56;;;25.73;36.53
32642;BME280;19323;56.072;9.698;2023-02-16T11:15:23;101002.03;;;25.73;36.45
32642;BME280;19323;56.072;9.698;2023-02-16T11:17:50;101002.72;;;25.75;36.50
32642;BME280;19323;56.072;9.698;2023-02-16T11:20:30;101008.91;;;25.76;36.30
32642;BME280;19323;56.072;9.698;2023-02-16T11:23:11;101007.94;;;25.77;36.30
32642;BME280;19323;56.072;9.698;2023-02-16T11:25:37;101005.09;;;25.78;36.34
32642;BME280;19323;56.072;9.698;2023-02-16T11:28:02;101015.66;;;25.80;36.63
32642;BME280;19323;56.072;9.698;2023-02-16T11:30:39;101007.59;;;25.80;36.38
32642;BME280;19323;56.072;9.698;2023-02-16T11:33:19;101027.09;;;25.82;36.27
32642;BME280;19323;56.072;9.698;2023-02-16T11:35:46;101018.06;;;25.83;36.12
32642;BME280;19323;56.072;9.698;2023-02-16T11:40:55;101013.38;;;25.85;36.40
32642;BME280;19323;56.072;9.698;2023-02-16T11:43:21;101008.69;;;25.87;36.29
32642;BME280;19323;56.072;9.698;2023-02-16T11:46:23;101004.16;;;25.87;36.05
32642;BME280;19323;56.072;9.698;2023-02-16T11:48:41;100998.69;;;25.89;36.29
32642;BME280;19323;56.072;9.698;2023-02-16T11:51:08;101005.72;;;25.90;36.01
32642;BME280;19323;56.072;9.698;2023-02-16T11:53:35;101007.44;;;25.91;36.29
32642;BME280;19323;56.072;9.698;2023-02-16T11:56:17;101013.63;;;25.92;36.03
32642;BME280;19323;56.072;9.698;2023-02-16T11:58:45;101008.25;;;25.92;36.19
32642;BME280;19323;56.072;9.698;2023-02-16T12:01:38;101017.84;;;25.94;36.18
32642;BME280;19323;56.072;9.698;2023-02-16T12:06:50;101009.88;;;26.02;36.36
32642;BME280;19323;56.072;9.698;2023-02-16T12:09:59;101009.88;;;26.02;36.20
32642;BME280;19323;56.072;9.698;2023-02-16T12:17:41;100998.91;;;25.96;36.34
32642;BME280;19323;56.072;9.698;2023-02-16T12:20:25;100998.03;;;25.95;36.25
32642;BME280;19323;56.072;9.698;2023-02-16T12:23:05;100989.28;;;25.93;36.12
32642;BME280;19323;56.072;9.698;2023-02-16T12:25:38;100984.94;;;25.92;36.24
32642;BME280;19323;56.072;9.698;2023-02-16T12:28:18;100983.09;;;25.93;36.54
32642;BME280;19323;56.072;9.698;2023-02-16T12:30:54;100984.94;;;25.92;36.39
32642;BME280;19323;56.072;9.698;2023-02-16T12:36:01;100981.09;;;25.95;36.67
32642;BME280;19323;56.072;9.698;2023-02-16T12:43:44;100971.13;;;26.05;36.58
32642;BME280;19323;56.072;9.698;2023-02-16T12:48:47;100973.88;;;26.13;36.32
32642;BME280;19323;56.072;9.698;2023-02-16T12:51:21;100965.34;;;26.18;36.26
32642;BME280;19323;56.072;9.698;2023-02-16T12:53:50;100964.31;;;26.19;36.14
32642;BME280;19323;56.072;9.698;2023-02-16T12:56:20;100963.63;;;26.17;36.29
32642;BME280;19323;56.072;9.698;2023-02-16T12:58:48;100967.50;;;26.14;36.35
32642;BME280;19323;56.072;9.698;2023-02-16T13:01:27;100969.47;;;26.12;36.33
32642;BME280;19323;56.072;9.698;2023-02-16T13:06:21;100960.06;;;26.08;36.11
32642;BME280;19323;56.072;9.698;2023-02-16T13:11:31;100962.94;;;26.06;36.32
32642;BME280;19323;56.072;9.698;2023-02-16T13:13:59;100960.38;;;26.05;36.26
32642;BME280;19323;56.072;9.698;2023-02-16T13:16:40;100961.22;;;26.05;36.24
32642;BME280;19323;56.072;9.698;2023-02-16T13:19:09;100956.88;;;26.04;36.17
32642;BME280;19323;56.072;9.698;2023-02-16T13:21:43;100955.84;;;26.05;36.21
32642;BME280;19323;56.072;9.698;2023-02-16T13:26:48;100953.84;;;26.07;35.99
32642;BME280;19323;56.072;9.698;2023-02-16T13:32:09;100957.56;;;26.06;35.82
32642;BME280;19323;56.072;9.698;2023-02-16T13:40:14;100945.94;;;26.06;35.84
32642;BME280;19323;56.072;9.698;2023-02-16T13:45:23;100941.28;;;26.08;36.02
32642;BME280;19323;56.072;9.698;2023-02-16T13:47:50;100947.53;;;26.17;36.03
32642;BME280;19323;56.072;9.698;2023-02-16T13:52:45;100930.78;;;26.23;35.66
32642;BME280;19323;56.072;9.698;2023-02-16T13:55:27;100935.31;;;26.22;35.74
32642;BME280;19323;56.072;9.698;2023-02-16T13:57:58;100928.09;;;26.23;35.97
32642;BME280;19323;56.072;9.698;2023-02-16T14:02:54;100926.47;;;26.30;35.92
32642;BME280;19323;56.072;9.698;2023-02-16T14:05:21;100920.47;;;26.36;35.59
32642;BME280;19323;56.072;9.698;2023-02-16T14:07:49;100913.78;;;26.40;35.64
32642;BME280;19323;56.072;9.698;2023-02-16T14:11:17;100906.25;;;26.44;35.51
32642;BME280;19323;56.072;9.698;2023-02-16T14:13:31;100912.78;;;26.49;35.40